Time;durP1;ratioP1;P1;durP2;ratioP2;P2;SDS_P1;SDS_P2;PMS_P1;PMS_P2;Temp;Humidity;BMP_temperature;BMP_pressure;BME280_temperature;BME280_humidity;BME280_pressure;Samples;Min_cycle;Max_cycle;Signal;HPM_P1;HPM_P2
2022/07/08 00:01:29;;;;;;;16.10;4.22;;;15.00;99.90;;;;;;5021386;28;20025;-47
2022/07/08 00:03:54;;;;;;;24.63;5.38;;;15.00;99.90;;;;;;5022903;28;20053;-44
2022/07/08 00:06:20;;;;;;;22.25;4.80;;;15.00;99.90;;;;;;5022419;28;20026;-45
2022/07/08 00:08:45;;;;;;;27.92;5.68;;;15.00;99.90;;;;;;5029893;28;20042;-44
2022/07/08 00:11:11;;;;;;;26.10;5.80;;;15.00;99.90;;;;;;5025836;28;20064;-43
2022/07/08 00:13:37;;;;;;;25.13;5.43;;;14.90;99.90;;;;;;5021503;28;20030;-44
2022/07/08 00:16:03;;;;;;;22.52;4.63;;;14.90;99.90;;;;;;5026258;28;20083;-46
2022/07/08 00:18:28;;;;;;;26.83;4.88;;;14.90;99.90;;;;;;5028237;28;20022;-44
2022/07/08 00:20:54;;;;;;;23.02;5.38;;;15.00;99.90;;;;;;5021965;28;20036;-46
2022/07/08 00:23:19;;;;;;;25.85;5.22;;;15.00;99.90;;;;;;5021585;28;20026;-45
2022/07/08 00:25:45;;;;;;;25.60;5.10;;;15.00;99.90;;;;;;5021966;28;20041;-47
2022/07/08 00:28:10;;;;;;;25.65;4.90;;;14.90;99.90;;;;;;5021975;28;20279;-45
2022/07/08 00:30:36;;;;;;;25.58;5.80;;;14.90;99.90;;;;;;5020679;28;20286;-48
2022/07/08 00:33:02;;;;;;;31.50;5.57;;;14.90;99.90;;;;;;5022515;28;20017;-44
2022/07/08 00:35:27;;;;;;;23.42;5.35;;;14.90;99.90;;;;;;5020256;28;20111;-45
2022/07/08 00:37:53;;;;;;;22.13;4.80;;;14.90;99.90;;;;;;5021293;28;20518;-46
2022/07/08 00:40:19;;;;;;;16.55;4.28;;;14.90;99.90;;;;;;5022518;28;20037;-48
2022/07/08 00:42:48;;;;;;;19.13;5.47;;;15.00;99.90;;;;;;5020787;28;20045;-45
2022/07/08 00:45:17;;;;;;;29.90;5.25;;;15.00;99.90;;;;;;5022620;28;20005;-45
2022/07/08 00:47:43;;;;;;;16.83;4.38;;;15.00;99.90;;;;;;5032855;28;20018;-46
2022/07/08 00:50:09;;;;;;;24.13;4.93;;;14.90;99.90;;;;;;5022915;28;20025;-46
2022/07/08 00:52:39;;;;;;;24.33;4.90;;;14.90;99.90;;;;;;5022222;28;20104;-46
2022/07/08 00:55:06;;;;;;;26.52;4.35;;;14.90;99.90;;;;;;5019661;28;20032;-45
2022/07/08 00:57:33;;;;;;;23.85;5.30;;;15.00;99.90;;;;;;5021408;28;20025;-45
2022/07/08 00:59:58;;;;;;;18.42;4.28;;;14.90;99.90;;;;;;5019779;28;20026;-47
2022/07/08 01:02:24;;;;;;;24.08;4.40;;;14.90;99.90;;;;;;5008676;28;20117;-46
2022/07/08 01:04:50;;;;;;;26.20;6.53;;;14.90;99.90;;;;;;5010957;28;20044;-44
2022/07/08 01:07:16;;;;;;;22.08;5.00;;;14.90;99.90;;;;;;5011856;28;20033;-45
2022/07/08 01:09:42;;;;;;;18.95;4.20;;;14.90;99.90;;;;;;5011402;28;20030;-44
2022/07/08 01:12:08;;;;;;;29.35;5.78;;;14.90;99.90;;;;;;5011762;28;20041;-45
2022/07/08 01:14:34;;;;;;;25.50;5.22;;;14.90;99.90;;;;;;5010564;28;20062;-45
2022/07/08 01:16:59;;;;;;;20.23;5.15;;;14.80;99.90;;;;;;5038028;28;20458;-47
2022/07/08 01:19:25;;;;;;;31.42;5.00;;;14.80;99.90;;;;;;5046893;28;20036;-45
2022/07/08 01:21:50;;;;;;;23.23;5.57;;;14.70;99.90;;;;;;5050959;28;20021;-44
2022/07/08 01:24:16;;;;;;;19.85;3.80;;;14.70;99.90;;;;;;5050396;28;20025;-44
2022/07/08 01:26:42;;;;;;;25.20;4.43;;;14.70;99.90;;;;;;5050885;28;20025;-45
2022/07/08 01:29:08;;;;;;;23.60;5.53;;;14.70;99.90;;;;;;5050744;28;20029;-46
2022/07/08 01:31:33;;;;;;;28.10;4.93;;;14.60;99.90;;;;;;5050270;28;20039;-44
2022/07/08 01:33:59;;;;;;;25.00;5.03;;;14.60;99.90;;;;;;5050468;28;20032;-45
2022/07/08 01:36:24;;;;;;;24.65;4.55;;;14.60;99.90;;;;;;5050254;28;20418;-45
2022/07/08 01:38:50;;;;;;;14.98;4.07;;;14.60;99.90;;;;;;5050347;28;20044;-45
2022/07/08 01:41:15;;;;;;;17.45;4.82;;;14.60;99.90;;;;;;5050463;28;20032;-47
2022/07/08 01:43:41;;;;;;;19.88;4.18;;;14.70;99.90;;;;;;5050476;28;20096;-46
2022/07/08 01:46:06;;;;;;;21.70;4.00;;;14.60;99.90;;;;;;5041594;28;20017;-45
2022/07/08 01:48:32;;;;;;;21.92;4.63;;;14.60;99.90;;;;;;5042324;28;20028;-45
2022/07/08 01:50:57;;;;;;;18.95;5.20;;;14.70;99.90;;;;;;5050511;28;20028;-45
2022/07/08 01:53:23;;;;;;;15.27;4.75;;;14.70;99.90;;;;;;5050519;28;20025;-45
2022/07/08 01:55:50;;;;;;;20.73;5.30;;;14.70;99.90;;;;;;5049617;28;20017;-47
2022/07/08 01:58:15;;;;;;;18.55;4.43;;;14.60;99.90;;;;;;5050610;28;20555;-45
2022/07/08 02:00:41;;;;;;;13.45;3.88;;;14.60;99.90;;;;;;5048497;28;20033;-44
2022/07/08 02:03:06;;;;;;;19.40;4.90;;;14.60;99.90;;;;;;5050163;28;20545;-45
2022/07/08 02:05:34;;;;;;;23.52;5.13;;;14.60;99.90;;;;;;5049460;28;20029;-44
2022/07/08 02:08:02;;;;;;;29.83;5.43;;;14.60;99.90;;;;;;5050076;28;20107;-45
2022/07/08 02:10:28;;;;;;;23.55;4.53;;;14.60;99.90;;;;;;5049978;28;20057;-45
2022/07/08 02:12:53;;;;;;;14.15;3.70;;;14.60;99.90;;;;;;5049877;28;20075;-44
2022/07/08 02:15:19;;;;;;;27.30;4.95;;;14.60;99.90;;;;;;5043078;28;20307;-44
2022/07/08 02:17:44;;;;;;;18.42;4.60;;;14.50;99.90;;;;;;5040585;28;20261;-44
2022/07/08 02:20:12;;;;;;;17.83;3.72;;;14.60;99.90;;;;;;5049704;28;20060;-44
2022/07/08 02:22:38;;;;;;;26.30;5.38;;;14.60;99.90;;;;;;5048441;28;20398;-44
2022/07/08 02:25:04;;;;;;;19.98;4.15;;;14.60;99.90;;;;;;5048936;28;20025;-47
2022/07/08 02:27:31;;;;;;;26.05;5.03;;;14.60;99.90;;;;;;5050037;28;20108;-44
2022/07/08 02:29:56;;;;;;;19.27;4.32;;;14.50;99.90;;;;;;5049590;28;20032;-46
2022/07/08 02:32:22;;;;;;;20.45;4.28;;;14.50;99.90;;;;;;5049311;28;20029;-44
2022/07/08 02:34:47;;;;;;;20.65;4.88;;;14.50;99.90;;;;;;5048948;28;20033;-45
2022/07/08 02:37:13;;;;;;;22.13;4.65;;;14.60;99.90;;;;;;5049622;28;20200;-44
2022/07/08 02:39:39;;;;;;;19.85;4.10;;;14.50;99.90;;;;;;5049481;28;20036;-45
2022/07/08 02:42:05;;;;;;;21.15;4.22;;;14.50;99.90;;;;;;5049545;28;20021;-44
2022/07/08 02:44:30;;;;;;;18.02;3.55;;;14.50;99.90;;;;;;5023168;28;20037;-48
2022/07/08 02:46:56;;;;;;;17.77;3.78;;;14.50;99.90;;;;;;5036945;28;20025;-45
2022/07/08 02:49:21;;;;;;;19.75;3.80;;;14.40;99.90;;;;;;5045048;28;20063;-45
2022/07/08 02:51:47;;;;;;;21.20;4.43;;;14.50;99.90;;;;;;5047962;28;20059;-46
2022/07/08 02:54:12;;;;;;;23.02;4.82;;;14.50;99.90;;;;;;5048489;28;20119;-44
2022/07/08 02:56:38;;;;;;;32.47;4.70;;;14.40;99.90;;;;;;5049204;28;20538;-45
2022/07/08 02:59:04;;;;;;;13.45;3.13;;;14.40;99.90;;;;;;5049033;28;20513;-45
2022/07/08 03:01:29;;;;;;;16.58;3.78;;;14.40;99.90;;;;;;5048875;28;20059;-45
2022/07/08 03:03:55;;;;;;;21.23;3.90;;;14.40;99.90;;;;;;5048847;28;20298;-45
2022/07/08 03:06:20;;;;;;;25.30;4.55;;;14.40;99.90;;;;;;5048946;28;20055;-44
2022/07/08 03:08:46;;;;;;;19.65;3.67;;;14.40;99.90;;;;;;5048900;28;20037;-45
2022/07/08 03:11:12;;;;;;;16.10;3.17;;;14.40;99.90;;;;;;5049305;28;20025;-45
2022/07/08 03:13:37;;;;;;;20.30;4.43;;;14.40;99.90;;;;;;5048947;28;20037;-45
2022/07/08 03:16:06;;;;;;;14.43;3.22;;;14.30;99.90;;;;;;5034787;28;20035;-46
2022/07/08 03:18:33;;;;;;;15.55;3.15;;;14.30;99.90;;;;;;5040382;28;20504;-45
2022/07/08 03:20:59;;;;;;;23.05;4.95;;;14.30;99.90;;;;;;5048696;28;20025;-45
2022/07/08 03:23:25;;;;;;;13.13;3.58;;;14.30;99.90;;;;;;5048747;28;20391;-44
2022/07/08 03:25:50;;;;;;;14.43;3.33;;;14.30;99.90;;;;;;5027485;28;20026;-46
2022/07/08 03:28:16;;;;;;;20.27;4.32;;;14.30;99.90;;;;;;5017013;28;20061;-44
2022/07/08 03:30:41;;;;;;;15.63;3.28;;;14.30;99.90;;;;;;5017608;28;20112;-45
2022/07/08 03:33:07;;;;;;;20.92;4.85;;;14.30;99.90;;;;;;5018806;28;20057;-44
2022/07/08 03:35:32;;;;;;;18.15;3.75;;;14.30;99.90;;;;;;5028071;28;20037;-43
2022/07/08 03:37:58;;;;;;;15.93;3.63;;;14.30;99.90;;;;;;5028669;28;20056;-44
2022/07/08 03:43:07;;;;;;;13.05;3.47;;;14.30;99.90;;;;;;5029159;28;20083;-44
2022/07/08 03:45:33;;;;;;;16.70;3.38;;;14.30;99.90;;;;;;5028470;28;20421;-44
2022/07/08 03:48:00;;;;;;;18.10;4.32;;;14.30;99.90;;;;;;5039897;28;20078;-44
2022/07/08 03:50:26;;;;;;;14.80;3.67;;;14.30;99.90;;;;;;5047212;28;20029;-44
2022/07/08 03:52:52;;;;;;;10.63;3.28;;;14.30;99.90;;;;;;5048529;28;20028;-45
2022/07/08 03:55:17;;;;;;;19.77;3.70;;;14.30;99.90;;;;;;5048256;28;20033;-45
2022/07/08 03:57:43;;;;;;;11.07;3.28;;;14.40;99.90;;;;;;5048761;28;20540;-46
2022/07/08 04:00:09;;;;;;;15.98;3.50;;;14.40;99.90;;;;;;5048252;28;20017;-46
2022/07/08 04:02:35;;;;;;;18.55;3.47;;;14.40;99.90;;;;;;5048479;28;20301;-45
2022/07/08 04:05:00;;;;;;;23.35;3.10;;;14.40;99.90;;;;;;5046558;28;20037;-45
2022/07/08 04:07:26;;;;;;;16.90;3.15;;;14.40;99.90;;;;;;5048362;28;20024;-45
2022/07/08 04:09:51;;;;;;;11.65;2.92;;;14.40;99.90;;;;;;5048155;28;20428;-45
2022/07/08 04:12:17;;;;;;;15.50;3.45;;;14.40;99.90;;;;;;5048171;28;20395;-45
2022/07/08 04:14:42;;;;;;;22.17;3.10;;;14.40;99.90;;;;;;5047068;28;20409;-45
2022/07/08 04:17:08;;;;;;;21.75;4.05;;;14.30;99.90;;;;;;5036315;28;20067;-46
2022/07/08 04:19:33;;;;;;;21.83;4.13;;;14.30;99.90;;;;;;5045194;28;20463;-45
2022/07/08 04:21:59;;;;;;;11.52;3.13;;;14.30;99.90;;;;;;5048167;28;20079;-46
2022/07/08 04:24:24;;;;;;;15.30;3.55;;;14.30;99.90;;;;;;5047428;28;20025;-46
2022/07/08 04:26:51;;;;;;;16.02;3.13;;;14.30;99.90;;;;;;5047912;28;20053;-45
2022/07/08 04:29:16;;;;;;;20.88;4.07;;;14.30;99.90;;;;;;5048025;28;20044;-44
2022/07/08 04:31:42;;;;;;;17.42;3.95;;;14.30;99.90;;;;;;5029346;28;20079;-44
2022/07/08 04:34:07;;;;;;;20.02;3.95;;;14.40;99.90;;;;;;5017245;28;20112;-44
2022/07/08 04:36:33;;;;;;;12.68;2.63;;;14.40;99.90;;;;;;5017139;28;20026;-44
2022/07/08 04:38:58;;;;;;;9.35;2.53;;;14.40;99.90;;;;;;5021816;28;20475;-44
2022/07/08 04:41:23;;;;;;;17.17;4.35;;;14.40;99.90;;;;;;5021334;28;20406;-43
2022/07/08 04:43:49;;;;;;;12.02;3.15;;;14.50;99.90;;;;;;5020504;28;20021;-45
2022/07/08 04:46:15;;;;;;;31.00;3.70;;;14.50;99.90;;;;;;5029380;28;20040;-45
2022/07/08 04:48:40;;;;;;;13.38;3.50;;;14.50;99.90;;;;;;5031964;28;20017;-45
2022/07/08 04:51:06;;;;;;;19.45;3.78;;;14.50;99.90;;;;;;5020998;28;20156;-44
2022/07/08 04:53:31;;;;;;;20.73;4.13;;;14.60;99.90;;;;;;5021372;28;20026;-45
2022/07/08 04:55:57;;;;;;;14.48;3.35;;;14.60;99.90;;;;;;5022514;28;20410;-44
2022/07/08 04:58:22;;;;;;;15.98;3.70;;;14.60;99.90;;;;;;5022195;28;20025;-45
2022/07/08 05:00:48;;;;;;;17.35;4.10;;;14.60;99.90;;;;;;5024636;28;20106;-45
2022/07/08 05:03:13;;;;;;;18.60;3.63;;;14.60;99.90;;;;;;5021014;28;20049;-45
2022/07/08 05:05:39;;;;;;;23.38;4.35;;;14.70;99.90;;;;;;5017187;28;20079;-45
2022/07/08 05:08:05;;;;;;;12.75;3.55;;;14.70;99.90;;;;;;5016165;28;20019;-45
2022/07/08 05:10:31;;;;;;;21.20;3.30;;;14.70;99.90;;;;;;5022958;28;20033;-46
2022/07/08 05:12:57;;;;;;;14.63;2.95;;;14.70;99.90;;;;;;5024796;28;20029;-44
2022/07/08 05:15:24;;;;;;;15.07;3.60;;;14.80;99.90;;;;;;5032392;28;20029;-44
2022/07/08 05:17:49;;;;;;;14.95;3.72;;;14.80;99.90;;;;;;5035302;28;20021;-45
2022/07/08 05:20:16;;;;;;;18.92;3.38;;;14.90;99.90;;;;;;5035266;28;20021;-45
2022/07/08 05:22:41;;;;;;;18.02;3.92;;;15.00;99.90;;;;;;5036083;28;20017;-45
2022/07/08 05:25:08;;;;;;;18.95;3.40;;;14.90;99.90;;;;;;5039660;28;20376;-44
2022/07/08 05:27:34;;;;;;;14.98;2.92;;;15.00;99.90;;;;;;5037407;28;20025;-45
2022/07/08 05:29:59;;;;;;;16.35;2.92;;;15.10;99.90;;;;;;5047330;28;20029;-45
2022/07/08 05:32:26;;;;;;;12.02;3.03;;;15.20;99.90;;;;;;5031102;28;20048;-44
2022/07/08 05:34:51;;;;;;;14.23;3.15;;;15.10;99.90;;;;;;5034841;28;20037;-45
2022/07/08 05:37:17;;;;;;;12.52;3.35;;;15.20;99.90;;;;;;5043253;28;20026;-44
2022/07/08 05:39:43;;;;;;;15.23;3.95;;;15.30;99.90;;;;;;5034393;28;20037;-45
2022/07/08 05:42:10;;;;;;;16.92;2.95;;;15.30;99.90;;;;;;5032592;28;20020;-46
2022/07/08 05:44:36;;;;;;;14.48;3.03;;;15.40;99.90;;;;;;5032138;28;20048;-47
2022/07/08 05:47:03;;;;;;;14.48;3.03;;;15.40;99.90;;;;;;5034612;28;20028;-44
2022/07/08 05:49:28;;;;;;;13.82;3.13;;;15.50;99.90;;;;;;5032160;28;20115;-44
2022/07/08 05:51:54;;;;;;;11.18;2.92;;;15.50;99.90;;;;;;5032066;28;20128;-44
2022/07/08 05:54:20;;;;;;;14.45;2.78;;;15.60;99.90;;;;;;5032189;28;20029;-44
2022/07/08 05:56:46;;;;;;;13.43;3.45;;;15.80;99.90;;;;;;5022040;28;20067;-47
2022/07/08 05:59:11;;;;;;;13.15;2.83;;;15.80;99.90;;;;;;5019593;28;20472;-44
2022/07/08 06:01:36;;;;;;;14.32;3.40;;;15.90;99.90;;;;;;5019723;28;20022;-47
2022/07/08 06:04:02;;;;;;;14.35;2.53;;;16.00;99.90;;;;;;5017859;28;20048;-47
2022/07/08 06:06:28;;;;;;;18.15;3.13;;;16.00;99.90;;;;;;5021790;28;20052;-47
2022/07/08 06:08:53;;;;;;;9.52;3.13;;;16.00;99.90;;;;;;5018911;28;20037;-45
2022/07/08 06:11:19;;;;;;;9.40;2.20;;;16.10;99.90;;;;;;5024509;28;20025;-45
2022/07/08 06:13:44;;;;;;;13.38;4.05;;;16.20;99.90;;;;;;5029758;28;20124;-46
2022/07/08 06:16:09;;;;;;;19.48;3.78;;;16.30;99.90;;;;;;5034657;28;20525;-46
2022/07/08 06:18:35;;;;;;;13.93;3.55;;;16.30;99.90;;;;;;5041280;28;20059;-46
2022/07/08 06:21:01;;;;;;;11.02;3.15;;;16.40;99.90;;;;;;5049765;28;20394;-45
2022/07/08 06:23:26;;;;;;;13.65;3.38;;;16.40;99.90;;;;;;5049666;28;20017;-44
2022/07/08 06:25:52;;;;;;;13.63;3.28;;;16.50;99.90;;;;;;5049084;28;20025;-44
2022/07/08 06:28:17;;;;;;;13.25;2.88;;;16.50;99.90;;;;;;5049630;28;20056;-45
2022/07/08 06:30:43;;;;;;;11.60;2.70;;;16.50;99.90;;;;;;5049621;28;20029;-45
2022/07/08 06:33:08;;;;;;;11.85;2.88;;;16.60;99.90;;;;;;5049497;28;20426;-45
2022/07/08 06:35:34;;;;;;;10.75;2.30;;;16.60;99.90;;;;;;5048912;28;20033;-45
2022/07/08 06:37:59;;;;;;;11.20;2.90;;;16.80;99.90;;;;;;5049154;28;20463;-45
2022/07/08 06:40:25;;;;;;;11.70;2.80;;;16.80;99.90;;;;;;5049584;28;20033;-45
2022/07/08 06:42:51;;;;;;;15.30;3.88;;;16.90;99.90;;;;;;5049481;28;20025;-47
2022/07/08 06:45:17;;;;;;;16.30;2.55;;;17.10;99.90;;;;;;5043712;28;20167;-45
2022/07/08 06:47:42;;;;;;;12.05;3.20;;;17.20;99.90;;;;;;5031198;28;20030;-44
2022/07/08 06:50:09;;;;;;;9.38;1.98;;;17.20;99.90;;;;;;5026911;28;20044;-45
2022/07/08 06:52:35;;;;;;;10.88;2.42;;;17.20;99.90;;;;;;5028093;28;20330;-45
2022/07/08 06:55:01;;;;;;;11.23;2.97;;;17.30;99.90;;;;;;5027738;28;20025;-44
2022/07/08 06:57:27;;;;;;;6.47;2.10;;;17.40;99.90;;;;;;5028451;28;20033;-44
2022/07/08 06:59:52;;;;;;;8.98;2.22;;;17.40;99.90;;;;;;5027143;28;20372;-44
2022/07/08 07:02:18;;;;;;;6.65;2.45;;;17.60;99.90;;;;;;5026508;28;20026;-44
2022/07/08 07:04:44;;;;;;;10.15;2.85;;;17.50;99.90;;;;;;5025918;28;20026;-45
2022/07/08 07:07:10;;;;;;;10.07;2.63;;;17.70;99.90;;;;;;5027987;28;20032;-45
2022/07/08 07:09:36;;;;;;;10.65;2.40;;;17.90;99.90;;;;;;5028210;28;20307;-44
2022/07/08 07:12:06;;;;;;;12.55;3.20;;;17.80;99.90;;;;;;5028275;28;20052;-44
2022/07/08 07:14:32;;;;;;;10.93;2.33;;;17.80;99.90;;;;;;5027652;28;20045;-44
2022/07/08 07:16:57;;;;;;;11.57;2.63;;;17.70;99.90;;;;;;5035083;28;20024;-45
2022/07/08 07:19:23;;;;;;;12.13;2.80;;;17.80;99.90;;;;;;5044232;28;20029;-45
2022/07/08 07:21:48;;;;;;;10.90;2.47;;;17.80;99.90;;;;;;5048619;28;20029;-44
2022/07/08 07:24:14;;;;;;;14.40;2.58;;;17.70;99.90;;;;;;5047581;28;20179;-45
2022/07/08 07:26:39;;;;;;;11.57;2.28;;;17.50;99.90;;;;;;5048839;28;20027;-45
2022/07/08 07:29:05;;;;;;;9.48;2.45;;;17.40;99.90;;;;;;5048848;28;20037;-45
2022/07/08 07:31:30;;;;;;;8.93;2.08;;;17.50;99.90;;;;;;5045182;28;20041;-45
2022/07/08 07:33:56;;;;;;;13.75;2.65;;;17.50;99.90;;;;;;5047075;28;20048;-46
2022/07/08 07:36:21;;;;;;;13.75;2.78;;;17.50;99.90;;;;;;5044968;28;20496;-45
2022/07/08 07:38:47;;;;;;;6.30;2.15;;;17.50;99.90;;;;;;5047404;28;20037;-47
2022/07/08 07:41:13;;;;;;;10.25;2.60;;;17.40;99.90;;;;;;5046644;28;20067;-45
2022/07/08 07:43:38;;;;;;;12.48;2.47;;;17.50;99.90;;;;;;5042121;28;20494;-45
2022/07/08 07:46:04;;;;;;;11.68;2.92;;;17.50;99.90;;;;;;5039994;28;20028;-45
2022/07/08 07:48:29;;;;;;;9.70;2.30;;;17.50;99.90;;;;;;5038722;28;20079;-45
2022/07/08 07:50:55;;;;;;;13.95;2.40;;;17.40;99.90;;;;;;5047183;28;20496;-47
2022/07/08 07:53:21;;;;;;;10.45;2.45;;;17.40;99.90;;;;;;5047190;28;20071;-45
2022/07/08 07:55:46;;;;;;;10.85;2.40;;;17.30;99.90;;;;;;5046609;28;20029;-45
2022/07/08 07:58:12;;;;;;;13.45;3.25;;;17.40;99.90;;;;;;5047305;28;20098;-47
2022/07/08 08:00:37;;;;;;;9.02;2.78;;;17.30;99.90;;;;;;5047084;28;20039;-45
2022/07/08 08:03:03;;;;;;;7.75;2.58;;;17.30;99.90;;;;;;5046939;28;20029;-45
2022/07/08 08:05:28;;;;;;;13.18;2.45;;;17.40;99.90;;;;;;5046703;28;20017;-47
2022/07/08 08:07:54;;;;;;;10.73;2.50;;;17.50;99.90;;;;;;5047175;28;20025;-45
2022/07/08 08:10:19;;;;;;;11.43;2.83;;;17.60;99.90;;;;;;5046648;28;20041;-45
2022/07/08 08:12:45;;;;;;;11.18;2.72;;;17.90;99.90;;;;;;5048448;28;20071;-45
2022/07/08 08:15:11;;;;;;;10.15;2.75;;;18.00;99.70;;;;;;5045523;28;20521;-45
2022/07/08 08:17:41;;;;;;;14.95;2.83;;;18.10;99.90;;;;;;5039303;28;20449;-46
2022/07/08 08:20:08;;;;;;;12.32;2.83;;;18.40;98.70;;;;;;5050349;28;20031;-45
2022/07/08 08:22:34;;;;;;;9.70;2.40;;;18.60;98.50;;;;;;5044556;28;20415;-45
2022/07/08 08:25:00;;;;;;;13.43;2.83;;;18.70;98.20;;;;;;5042940;28;20521;-47
2022/07/08 08:27:25;;;;;;;11.40;2.17;;;19.30;98.20;;;;;;5030656;28;20048;-45
2022/07/08 08:29:51;;;;;;;8.30;2.55;;;19.70;96.80;;;;;;5030810;28;20064;-46
2022/07/08 08:32:16;;;;;;;7.97;2.10;;;20.00;96.10;;;;;;5029445;28;20590;-48
2022/07/08 08:34:42;;;;;;;7.95;1.98;;;20.80;95.00;;;;;;5030090;28;20040;-46
2022/07/08 08:37:07;;;;;;;14.00;3.10;;;20.70;94.40;;;;;;5030837;28;20475;-45
2022/07/08 08:39:33;;;;;;;6.82;2.10;;;20.50;94.40;;;;;;5030427;28;20076;-45
2022/07/08 08:41:59;;;;;;;14.30;2.47;;;21.30;93.90;;;;;;5030842;28;20551;-47
2022/07/08 08:44:26;;;;;;;8.70;2.20;;;22.00;92.40;;;;;;5027482;28;20026;-46
2022/07/08 08:46:53;;;;;;;8.10;2.20;;;22.00;91.00;;;;;;5012976;28;20079;-45
2022/07/08 08:49:20;;;;;;;7.38;2.38;;;22.20;90.80;;;;;;5013287;28;20057;-45
2022/07/08 08:51:49;;;;;;;5.85;1.80;;;21.90;91.20;;;;;;5019220;28;20029;-45
2022/07/08 08:54:16;;;;;;;12.73;2.57;;;21.90;91.00;;;;;;5023383;28;20037;-46
2022/07/08 08:56:43;;;;;;;9.20;2.17;;;21.80;92.30;;;;;;5000663;28;20590;-47
2022/07/08 08:59:09;;;;;;;8.52;2.63;;;21.00;91.30;;;;;;4998628;28;20574;-45
2022/07/08 09:01:35;;;;;;;8.88;2.20;;;20.90;92.00;;;;;;4997101;28;20059;-45
2022/07/08 09:04:02;;;;;;;9.15;2.92;;;21.30;92.60;;;;;;4997283;28;20014;-45
2022/07/08 09:06:27;;;;;;;13.15;2.40;;;22.80;90.00;;;;;;5012004;28;20036;-43
2022/07/08 09:08:53;;;;;;;8.10;1.70;;;23.50;86.00;;;;;;5020361;28;20108;-44
2022/07/08 09:11:19;;;;;;;10.43;2.30;;;23.50;86.10;;;;;;5012532;28;20093;-42
2022/07/08 09:14:15;;;;;;;10.63;2.05;;;22.90;85.90;;;;;;5010897;28;20650;-45
2022/07/08 09:17:01;;;;;;;10.75;2.03;;;22.90;86.10;;;;;;5010384;28;20037;-45
2022/07/08 09:19:27;;;;;;;6.70;1.98;;;23.40;84.20;;;;;;5011454;28;20595;-44
2022/07/08 09:21:52;;;;;;;6.55;2.05;;;24.60;82.60;;;;;;5011286;28;20058;-45
2022/07/08 09:24:19;;;;;;;9.95;2.05;;;25.90;76.60;;;;;;5036995;28;20383;-48
2022/07/08 09:26:45;;;;;;;10.93;2.40;;;26.70;75.80;;;;;;5049490;28;20029;-45
2022/07/08 09:29:11;;;;;;;5.85;2.42;;;26.20;72.40;;;;;;5051247;28;20039;-46
2022/07/08 09:31:38;;;;;;;11.20;2.30;;;24.90;73.50;;;;;;5050710;28;20375;-46
2022/07/08 09:34:09;;;;;;;8.77;2.25;;;24.10;76.50;;;;;;5035886;28;20029;-44
2022/07/08 09:36:49;;;;;;;5.60;2.25;;;24.60;77.10;;;;;;5022002;28;20157;-48
2022/07/08 09:39:25;;;;;;;6.43;1.87;;;25.10;74.10;;;;;;5021273;28;20025;-45
2022/07/08 09:41:51;;;;;;;8.13;2.35;;;25.00;74.20;;;;;;5024784;28;20292;-45
2022/07/08 09:44:19;;;;;;;12.20;2.45;;;25.20;76.70;;;;;;5029907;28;20060;-44
2022/07/08 09:46:45;;;;;;;8.13;2.13;;;25.00;74.60;;;;;;5022196;28;20017;-48
2022/07/08 09:49:27;;;;;;;8.65;1.73;;;25.70;73.80;;;;;;5029391;28;20036;-47
2022/07/08 09:51:52;;;;;;;6.70;1.50;;;26.90;69.90;;;;;;5030700;28;20026;-47
2022/07/08 09:54:18;;;;;;;8.70;2.00;;;27.60;68.80;;;;;;5036258;28;20044;-44
2022/07/08 09:57:06;;;;;;;6.40;1.80;;;28.70;64.30;;;;;;5046792;28;20033;-45
2022/07/08 09:59:34;;;;;;;9.38;2.58;;;28.50;63.20;;;;;;5048829;28;20024;-44
2022/07/08 10:02:00;;;;;;;6.07;1.63;;;28.00;64.40;;;;;;5049643;28;20382;-44
2022/07/08 10:04:26;;;;;;;7.53;2.25;;;27.00;65.00;;;;;;5049577;28;20017;-45
2022/07/08 10:06:54;;;;;;;6.78;1.90;;;26.60;68.30;;;;;;5050181;28;20413;-44
2022/07/08 10:09:21;;;;;;;9.68;2.22;;;27.20;66.50;;;;;;5048301;28;20521;-45
2022/07/08 10:11:48;;;;;;;6.53;1.92;;;27.80;65.80;;;;;;5048319;28;20040;-45
2022/07/08 10:14:14;;;;;;;11.25;2.30;;;28.00;64.40;;;;;;5047466;28;20032;-45
2022/07/08 10:16:41;;;;;;;4.82;1.70;;;27.90;62.20;;;;;;5048254;28;20025;-45
2022/07/08 10:19:16;;;;;;;11.95;2.00;;;28.00;65.30;;;;;;5048350;28;20486;-44
2022/07/08 10:21:46;;;;;;;7.63;2.40;;;27.40;62.50;;;;;;5048132;28;20060;-45
2022/07/08 10:24:17;;;;;;;7.03;2.47;;;26.80;65.40;;;;;;5037243;28;20037;-47
2022/07/08 10:26:44;;;;;;;9.90;2.58;;;25.90;67.40;;;;;;5048655;28;20029;-46
2022/07/08 10:29:13;;;;;;;11.82;2.45;;;24.80;68.30;;;;;;5049576;28;20025;-46
2022/07/08 10:31:51;;;;;;;7.93;2.63;;;24.50;71.60;;;;;;5049932;28;20188;-44
2022/07/08 10:34:22;;;;;;;9.15;2.28;;;23.70;72.10;;;;;;5048939;28;20256;-44
2022/07/08 10:36:52;;;;;;;5.47;2.17;;;23.30;75.80;;;;;;5045221;28;20025;-45
2022/07/08 10:39:28;;;;;;;12.25;2.40;;;23.00;76.00;;;;;;5024932;28;20513;-44
2022/07/08 10:41:57;;;;;;;11.70;2.92;;;22.60;76.70;;;;;;5028501;28;20079;-45
2022/07/08 10:44:45;;;;;;;8.03;2.57;;;22.40;77.90;;;;;;5028134;28;20419;-47
2022/07/08 10:47:12;;;;;;;10.82;3.10;;;22.70;77.10;;;;;;5027327;28;20255;-48
2022/07/08 10:49:48;;;;;;;8.95;2.65;;;23.00;76.80;;;;;;5028495;28;20546;-46
2022/07/08 10:52:15;;;;;;;11.10;2.35;;;22.60;79.10;;;;;;5028528;28;20147;-46
2022/07/08 10:54:42;;;;;;;11.65;2.85;;;22.50;78.60;;;;;;5036016;28;20021;-45
2022/07/08 10:57:15;;;;;;;11.32;2.45;;;22.30;80.40;;;;;;5048455;28;20017;-44
2022/07/08 10:59:40;;;;;;;9.10;2.60;;;22.50;79.80;;;;;;5048538;28;20033;-45
2022/07/08 11:02:07;;;;;;;10.13;2.53;;;22.20;80.40;;;;;;5048455;28;20036;-45
2022/07/08 11:04:36;;;;;;;10.45;2.58;;;22.40;80.80;;;;;;5047477;28;20013;-44
2022/07/08 11:07:13;;;;;;;6.03;2.40;;;22.50;79.20;;;;;;5048181;28;20032;-45
2022/07/08 11:09:40;;;;;;;5.70;2.13;;;23.00;81.50;;;;;;5045169;28;20227;-45
2022/07/08 11:12:09;;;;;;;10.10;2.67;;;23.30;79.40;;;;;;5047006;28;20453;-45
2022/07/08 11:14:35;;;;;;;11.23;2.60;;;23.30;78.60;;;;;;5047618;28;20397;-44
2022/07/08 11:17:02;;;;;;;8.50;2.47;;;23.20;79.20;;;;;;5048032;28;20036;-44
2022/07/08 11:19:33;;;;;;;7.53;2.20;;;22.50;80.00;;;;;;5048007;28;21085;-45
2022/07/08 11:22:02;;;;;;;16.85;2.65;;;22.40;81.30;;;;;;5047959;28;20027;-44
2022/07/08 11:24:28;;;;;;;9.23;2.78;;;22.40;83.40;;;;;;5030178;28;20017;-45
2022/07/08 11:26:54;;;;;;;8.55;2.63;;;22.70;81.70;;;;;;5046663;28;20028;-45
2022/07/08 11:29:24;;;;;;;8.18;2.80;;;22.80;80.30;;;;;;5048359;28;20037;-44
2022/07/08 11:31:57;;;;;;;7.03;2.10;;;23.30;81.40;;;;;;5047653;28;20521;-46
2022/07/08 11:34:24;;;;;;;8.73;2.28;;;24.10;79.30;;;;;;5047441;28;20025;-47
2022/07/08 11:37:08;;;;;;;7.47;2.45;;;24.20;77.40;;;;;;5046409;28;20494;-46
2022/07/08 11:39:34;;;;;;;9.00;2.35;;;24.10;78.30;;;;;;5033988;28;20057;-48
2022/07/08 11:42:00;;;;;;;7.22;2.38;;;24.20;78.30;;;;;;5023819;28;20122;-45
2022/07/08 11:44:27;;;;;;;6.20;1.95;;;23.80;80.00;;;;;;5025769;28;20140;-45
2022/07/08 11:46:54;;;;;;;5.45;2.00;;;24.00;81.10;;;;;;5024663;28;20026;-48
2022/07/08 11:49:59;;;;;;;5.47;2.03;;;23.90;77.80;;;;;;5026124;28;20026;-48
2022/07/08 11:52:27;;;;;;;6.55;1.90;;;23.60;78.10;;;;;;5003610;28;20038;-44
2022/07/08 11:54:54;;;;;;;6.28;2.15;;;23.20;80.50;;;;;;5012623;28;20603;-45
2022/07/08 11:57:20;;;;;;;6.50;2.08;;;23.00;81.30;;;;;;5042575;28;20124;-46
2022/07/08 11:59:48;;;;;;;9.52;2.47;;;22.70;84.40;;;;;;5046178;28;20514;-45
2022/07/08 12:02:23;;;;;;;8.25;2.50;;;22.50;83.50;;;;;;5046511;28;20056;-46
2022/07/08 12:04:50;;;;;;;4.75;2.13;;;22.20;85.20;;;;;;5045560;28;20113;-45
2022/07/08 12:07:27;;;;;;;6.22;2.63;;;22.10;85.70;;;;;;5045047;28;20119;-45
2022/07/08 12:10:00;;;;;;;8.43;2.00;;;21.80;85.00;;;;;;5044231;28;20502;-46
2022/07/08 12:12:29;;;;;;;3.17;1.33;;;21.70;87.60;;;;;;5046205;28;20533;-45
2022/07/08 12:14:55;;;;;;;5.85;1.60;;;21.80;86.00;;;;;;5045637;28;20044;-44
2022/07/08 12:17:28;;;;;;;5.15;1.83;;;22.10;85.60;;;;;;5046939;28;20521;-45
2022/07/08 12:19:54;;;;;;;6.53;1.98;;;22.40;85.20;;;;;;5045773;28;20057;-45
2022/07/08 12:22:49;;;;;;;6.97;1.63;;;22.80;86.60;;;;;;5034616;28;20140;-49
2022/07/08 12:25:16;;;;;;;5.88;1.92;;;22.70;85.20;;;;;;5024347;28;20037;-45
2022/07/08 12:27:42;;;;;;;6.63;2.13;;;22.90;83.90;;;;;;5014645;28;20433;-46
2022/07/08 12:30:09;;;;;;;5.85;2.00;;;22.70;85.70;;;;;;5016051;28;20104;-46
2022/07/08 12:32:42;;;;;;;7.60;2.25;;;22.50;85.70;;;;;;5018482;28;20025;-49
2022/07/08 12:35:10;;;;;;;7.35;2.40;;;22.20;86.90;;;;;;5016583;28;20013;-46
2022/07/08 12:37:37;;;;;;;6.47;2.00;;;22.00;86.50;;;;;;5015223;28;20383;-45
2022/07/08 12:40:19;;;;;;;6.55;2.10;;;21.80;87.10;;;;;;5012976;28;20072;-45
2022/07/08 12:43:01;;;;;;;11.48;2.35;;;21.80;87.70;;;;;;5021047;28;20234;-46